Time;durP1;ratioP1;P1;durP2;ratioP2;P2;SDS_P1;SDS_P2;PMS_P1;PMS_P2;Temp;Humidity;BMP_temperature;BMP_pressure;BME280_temperature;BME280_humidity;BME280_pressure;Samples;Min_cycle;Max_cycle;Signal;HPM_P1;HPM_P2
2022/08/26 00:01:12;;;;;;;5.72;5.22;;;;;;;;;;5068757;28;20293;-79
2022/08/26 00:03:40;;;;;;;5.78;5.28;;;;;;;;;;5066595;28;20279;-78
2022/08/26 00:06:07;;;;;;;5.20;4.80;;;;;;;;;;5065651;28;20692;-78
2022/08/26 00:08:39;;;;;;;6.20;5.60;;;;;;;;;;5047324;28;20197;-78
2022/08/26 00:11:07;;;;;;;6.45;5.85;;;;;;;;;;5052670;28;20285;-80
2022/08/26 00:13:35;;;;;;;6.35;5.72;;;;;;;;;;5065458;28;20278;-79
2022/08/26 00:16:04;;;;;;;8.50;6.38;;;;;;;;;;5067652;28;20312;-79
2022/08/26 00:18:33;;;;;;;6.40;5.80;;;;;;;;;;5070424;28;20214;-80
2022/08/26 00:21:07;;;;;;;6.60;6.05;;;;;;;;;;5064473;28;20194;-79
2022/08/26 00:23:35;;;;;;;6.28;5.65;;;;;;;;;;5064771;28;20257;-79
2022/08/26 00:26:04;;;;;;;6.53;5.95;;;;;;;;;;5062491;28;20205;-79
2022/08/26 00:28:34;;;;;;;6.38;5.78;;;;;;;;;;5066696;28;20261;-78
2022/08/26 00:31:01;;;;;;;6.80;6.03;;;;;;;;;;5051028;28;20233;-78
2022/08/26 00:33:29;;;;;;;6.68;6.07;;;;;;;;;;5069560;28;20232;-79
2022/08/26 00:35:58;;;;;;;7.03;6.32;;;;;;;;;;5068462;28;20202;-79
2022/08/26 00:38:26;;;;;;;6.43;5.82;;;;;;;;;;5046596;28;20213;-78
2022/08/26 00:40:56;;;;;;;6.95;6.32;;;;;;;;;;5063490;28;20213;-80
2022/08/26 00:43:24;;;;;;;6.90;6.30;;;;;;;;;;5070438;28;20475;-80
2022/08/26 00:45:57;;;;;;;7.88;6.28;;;;;;;;;;5069175;28;20229;-80
2022/08/26 00:48:26;;;;;;;7.28;6.57;;;;;;;;;;5064119;28;20236;-79
2022/08/26 00:51:00;;;;;;;8.48;6.22;;;;;;;;;;5064651;28;20210;-79
2022/08/26 00:53:30;;;;;;;6.80;6.20;;;;;;;;;;5063457;28;20328;-79
2022/08/26 00:56:03;;;;;;;6.70;6.03;;;;;;;;;;5065157;28;20197;-80
2022/08/26 00:58:32;;;;;;;7.00;6.07;;;;;;;;;;5067633;28;20204;-80
2022/08/26 01:01:02;;;;;;;7.15;6.25;;;;;;;;;;5061551;28;20236;-80
2022/08/26 01:03:31;;;;;;;6.38;5.78;;;;;;;;;;5065448;28;20225;-81
2022/08/26 01:05:59;;;;;;;6.28;5.40;;;;;;;;;;5068096;28;21259;-79
2022/08/26 01:08:26;;;;;;;6.75;6.18;;;;;;;;;;5065275;28;20201;-79
2022/08/26 01:10:54;;;;;;;6.75;5.97;;;;;;;;;;5046217;28;20301;-78
2022/08/26 01:13:26;;;;;;;6.18;5.70;;;;;;;;;;5065796;28;20304;-81
2022/08/26 01:15:55;;;;;;;6.90;6.30;;;;;;;;;;5069608;28;20251;-80
2022/08/26 01:18:24;;;;;;;6.20;5.70;;;;;;;;;;5063435;28;20198;-80
2022/08/26 01:21:29;;;;;;;7.75;7.00;;;;;;;;;;5051074;28;20206;-80
2022/08/26 01:23:57;;;;;;;7.25;6.20;;;;;;;;;;5004126;28;20317;-81
2022/08/26 01:26:30;;;;;;;9.25;6.57;;;;;;;;;;5006205;28;20291;-78
2022/08/26 01:29:00;;;;;;;8.43;6.60;;;;;;;;;;5036145;28;20208;-79
2022/08/26 01:31:29;;;;;;;6.88;6.28;;;;;;;;;;5064885;28;20233;-79
2022/08/26 01:34:02;;;;;;;6.45;5.95;;;;;;;;;;5068934;28;20937;-79
2022/08/26 01:36:30;;;;;;;7.47;6.78;;;;;;;;;;5062423;28;20201;-79
2022/08/26 01:38:57;;;;;;;6.95;6.30;;;;;;;;;;5065750;28;20285;-79
2022/08/26 01:41:25;;;;;;;7.20;6.50;;;;;;;;;;5065459;28;20316;-78
2022/08/26 01:43:56;;;;;;;7.25;6.65;;;;;;;;;;5069159;28;20225;-79
2022/08/26 01:46:24;;;;;;;7.07;6.38;;;;;;;;;;5064515;28;20296;-78
2022/08/26 01:48:54;;;;;;;9.10;6.93;;;;;;;;;;5065619;28;20607;-79
2022/08/26 01:51:22;;;;;;;7.20;6.50;;;;;;;;;;5064263;28;20199;-79
2022/08/26 01:53:49;;;;;;;8.88;6.03;;;;;;;;;;5066845;28;20328;-79
2022/08/26 01:56:17;;;;;;;6.60;6.00;;;;;;;;;;5059604;28;20293;-78
2022/08/26 01:58:50;;;;;;;7.05;6.35;;;;;;;;;;5065013;28;20293;-78
2022/08/26 02:01:19;;;;;;;9.43;6.80;;;;;;;;;;5069027;28;20208;-80
2022/08/26 02:04:06;;;;;;;6.90;6.30;;;;;;;;;;5066931;28;20260;-80
2022/08/26 02:06:35;;;;;;;7.97;7.18;;;;;;;;;;5047288;28;20220;-78
2022/08/26 02:09:04;;;;;;;8.00;6.80;;;;;;;;;;5064416;28;20217;-79
2022/08/26 02:11:31;;;;;;;7.40;6.60;;;;;;;;;;5063115;28;20612;-80
2022/08/26 02:14:01;;;;;;;7.25;6.55;;;;;;;;;;5067594;28;20303;-79
2022/08/26 02:16:33;;;;;;;6.82;6.22;;;;;;;;;;5064856;28;20198;-79
2022/08/26 02:19:03;;;;;;;6.50;5.90;;;;;;;;;;5043154;28;20211;-79
2022/08/26 02:21:33;;;;;;;8.20;7.38;;;;;;;;;;5059822;28;20225;-78
2022/08/26 02:24:14;;;;;;;8.57;6.57;;;;;;;;;;5062986;28;20260;-80
2022/08/26 02:26:42;;;;;;;6.88;6.30;;;;;;;;;;5060895;28;20710;-78
2022/08/26 02:29:18;;;;;;;9.50;7.68;;;;;;;;;;5048963;28;20212;-79
2022/08/26 02:31:47;;;;;;;9.48;7.53;;;;;;;;;;5057129;28;20223;-80
2022/08/26 02:34:16;;;;;;;8.85;7.93;;;;;;;;;;5064155;28;20312;-81
2022/08/26 02:36:43;;;;;;;9.18;7.50;;;;;;;;;;5060606;28;20264;-78
2022/08/26 02:39:11;;;;;;;7.65;6.90;;;;;;;;;;5060573;28;20241;-80
2022/08/26 02:41:42;;;;;;;8.23;6.50;;;;;;;;;;5063992;28;20197;-80
2022/08/26 02:44:12;;;;;;;7.53;6.82;;;;;;;;;;5062625;28;20283;-78
2022/08/26 02:46:39;;;;;;;7.53;6.93;;;;;;;;;;5061169;28;20205;-78
2022/08/26 02:49:07;;;;;;;8.82;7.15;;;;;;;;;;5065579;28;20288;-79
2022/08/26 02:51:34;;;;;;;7.47;6.75;;;;;;;;;;5062504;28;20198;-79
2022/08/26 02:54:02;;;;;;;6.95;6.45;;;;;;;;;;5066581;28;20276;-79
2022/08/26 02:56:32;;;;;;;7.55;6.80;;;;;;;;;;5060696;28;20205;-79
2022/08/26 02:59:01;;;;;;;7.57;6.80;;;;;;;;;;5066206;28;20259;-79
2022/08/26 03:01:31;;;;;;;7.18;6.57;;;;;;;;;;5066961;28;20653;-80
2022/08/26 03:04:00;;;;;;;7.43;6.68;;;;;;;;;;5066196;28;20751;-79
2022/08/26 03:06:28;;;;;;;7.45;6.70;;;;;;;;;;5071628;28;20288;-81
2022/08/26 03:08:55;;;;;;;7.38;6.68;;;;;;;;;;5067983;28;20369;-77
2022/08/26 03:11:24;;;;;;;7.20;6.57;;;;;;;;;;5045995;28;20205;-79
2022/08/26 03:13:57;;;;;;;7.72;6.93;;;;;;;;;;5060828;28;21521;-79
2022/08/26 03:16:25;;;;;;;8.02;7.32;;;;;;;;;;5048669;28;20229;-79
2022/08/26 03:18:59;;;;;;;6.95;6.38;;;;;;;;;;5064358;28;20202;-78
2022/08/26 03:21:26;;;;;;;8.73;6.97;;;;;;;;;;5065704;28;20296;-79
2022/08/26 03:23:53;;;;;;;6.85;6.10;;;;;;;;;;5062820;28;20322;-78
2022/08/26 03:26:25;;;;;;;6.80;6.18;;;;;;;;;;5062814;28;20198;-79
2022/08/26 03:31:38;;;;;;;7.45;6.75;;;;;;;;;;5062884;28;20207;-78
2022/08/26 03:34:06;;;;;;;7.40;6.63;;;;;;;;;;5068657;28;20906;-78
2022/08/26 03:36:33;;;;;;;11.82;6.88;;;;;;;;;;5067104;28;20205;-79
2022/08/26 03:39:01;;;;;;;8.68;7.22;;;;;;;;;;5069254;28;20267;-81
2022/08/26 03:41:31;;;;;;;8.10;7.30;;;;;;;;;;5068044;28;20284;-78
2022/08/26 03:43:58;;;;;;;6.70;6.13;;;;;;;;;;5068089;28;20272;-79
2022/08/26 03:46:28;;;;;;;7.80;7.15;;;;;;;;;;5064594;28;20206;-78
2022/08/26 03:48:56;;;;;;;7.90;7.20;;;;;;;;;;5073324;28;20209;-80
2022/08/26 03:51:24;;;;;;;8.30;7.50;;;;;;;;;;5046316;28;20220;-78
2022/08/26 03:53:52;;;;;;;7.90;7.22;;;;;;;;;;5070551;28;20264;-79
2022/08/26 03:56:19;;;;;;;7.83;6.90;;;;;;;;;;5066776;28;20237;-81
2022/08/26 03:58:46;;;;;;;7.63;6.83;;;;;;;;;;5049936;28;20233;-79
2022/08/26 04:01:16;;;;;;;7.93;7.13;;;;;;;;;;5067359;28;20202;-80
2022/08/26 04:03:57;;;;;;;8.27;7.47;;;;;;;;;;5068277;28;20892;-78
2022/08/26 04:06:34;;;;;;;10.50;8.32;;;;;;;;;;5066418;28;20205;-81
2022/08/26 04:09:04;;;;;;;13.15;9.30;;;;;;;;;;5065957;28;20333;-78
2022/08/26 04:11:32;;;;;;;10.23;8.85;;;;;;;;;;5068581;28;20205;-78
2022/08/26 04:14:03;;;;;;;7.45;6.75;;;;;;;;;;5071035;28;20312;-79
2022/08/26 04:16:30;;;;;;;8.77;7.93;;;;;;;;;;5052316;28;20285;-79
2022/08/26 04:18:58;;;;;;;7.70;7.00;;;;;;;;;;5074389;28;20205;-77
2022/08/26 04:21:26;;;;;;;8.77;7.97;;;;;;;;;;5068963;28;20296;-79
2022/08/26 04:23:53;;;;;;;7.78;7.05;;;;;;;;;;5050165;28;20264;-79
2022/08/26 04:26:21;;;;;;;7.63;6.90;;;;;;;;;;5068245;28;20197;-76
2022/08/26 04:28:50;;;;;;;9.52;7.38;;;;;;;;;;5068435;28;20203;-79
2022/08/26 04:31:17;;;;;;;8.68;7.80;;;;;;;;;;5066159;28;20238;-81
2022/08/26 04:33:48;;;;;;;8.50;7.63;;;;;;;;;;5068394;28;20259;-78
2022/08/26 04:36:17;;;;;;;8.57;7.78;;;;;;;;;;5069076;28;20205;-78
2022/08/26 04:38:46;;;;;;;10.52;7.80;;;;;;;;;;5056779;28;20225;-78
2022/08/26 04:41:14;;;;;;;9.47;8.57;;;;;;;;;;5072445;28;20236;-80
2022/08/26 04:43:44;;;;;;;10.73;8.60;;;;;;;;;;5070883;28;20283;-78
2022/08/26 04:46:12;;;;;;;8.55;7.38;;;;;;;;;;5069814;28;20193;-79
2022/08/26 04:48:40;;;;;;;9.98;8.48;;;;;;;;;;5069831;28;20691;-78
2022/08/26 04:51:08;;;;;;;9.35;8.40;;;;;;;;;;5071467;28;20692;-79
2022/08/26 04:53:36;;;;;;;9.80;8.80;;;;;;;;;;5068083;28;20703;-81
2022/08/26 04:56:04;;;;;;;11.30;7.93;;;;;;;;;;5053906;28;20209;-78
2022/08/26 04:58:31;;;;;;;9.43;7.57;;;;;;;;;;5052373;28;20288;-79
2022/08/26 05:00:58;;;;;;;8.68;7.80;;;;;;;;;;5070129;28;20210;-78
2022/08/26 05:03:26;;;;;;;13.40;7.20;;;;;;;;;;5071525;28;20704;-79
2022/08/26 05:05:56;;;;;;;11.90;7.28;;;;;;;;;;5069497;28;20309;-78
2022/08/26 05:08:24;;;;;;;8.13;6.45;;;;;;;;;;5071495;28;20270;-78
2022/08/26 05:10:54;;;;;;;9.35;6.65;;;;;;;;;;5067160;28;20256;-79
2022/08/26 05:13:24;;;;;;;9.85;7.50;;;;;;;;;;5066976;28;20221;-77
2022/08/26 05:15:51;;;;;;;11.05;7.70;;;;;;;;;;5069635;28;20208;-80
2022/08/26 05:18:21;;;;;;;8.98;7.43;;;;;;;;;;5074794;28;20209;-79
2022/08/26 05:20:51;;;;;;;8.13;7.18;;;;;;;;;;5070826;28;20647;-79
2022/08/26 05:23:24;;;;;;;9.63;6.88;;;;;;;;;;5071440;28;20229;-78
2022/08/26 05:25:52;;;;;;;9.48;7.80;;;;;;;;;;5067720;28;20347;-79
2022/08/26 05:28:25;;;;;;;13.15;7.63;;;;;;;;;;5070466;28;20194;-79
2022/08/26 05:30:54;;;;;;;10.48;7.95;;;;;;;;;;5070806;28;20288;-78
2022/08/26 05:33:22;;;;;;;17.15;8.57;;;;;;;;;;5069079;28;20236;-80
2022/08/26 05:35:49;;;;;;;18.23;8.32;;;;;;;;;;5068677;28;20233;-79
2022/08/26 05:38:19;;;;;;;22.58;8.68;;;;;;;;;;5065366;28;20208;-80
2022/08/26 05:40:48;;;;;;;19.48;7.53;;;;;;;;;;5070508;28;20320;-79
2022/08/26 05:43:19;;;;;;;12.88;7.65;;;;;;;;;;5066341;28;20316;-77
2022/08/26 05:45:47;;;;;;;11.00;7.43;;;;;;;;;;5066957;28;20202;-76
2022/08/26 05:48:16;;;;;;;8.30;7.10;;;;;;;;;;5065308;28;20652;-80
2022/08/26 05:50:45;;;;;;;11.70;7.50;;;;;;;;;;5068447;28;20251;-79
2022/08/26 05:53:14;;;;;;;24.08;7.72;;;;;;;;;;5053434;28;20272;-76
2022/08/26 05:55:45;;;;;;;14.20;8.20;;;;;;;;;;5070218;28;20217;-81
2022/08/26 05:58:12;;;;;;;14.73;8.27;;;;;;;;;;5069228;28;20288;-79
2022/08/26 06:00:43;;;;;;;13.70;8.02;;;;;;;;;;5067128;28;20217;-80
2022/08/26 06:03:11;;;;;;;9.57;7.68;;;;;;;;;;5069191;28;20229;-80
2022/08/26 06:05:39;;;;;;;10.45;7.75;;;;;;;;;;5074186;28;20202;-79
2022/08/26 06:08:17;;;;;;;13.88;8.05;;;;;;;;;;5070182;28;20202;-81
2022/08/26 06:10:55;;;;;;;11.43;8.15;;;;;;;;;;5051155;28;20592;-81
2022/08/26 06:13:25;;;;;;;15.15;8.73;;;;;;;;;;5069060;28;21946;-76
2022/08/26 06:15:53;;;;;;;16.50;8.73;;;;;;;;;;5061115;28;20236;-80
2022/08/26 06:18:29;;;;;;;13.40;7.63;;;;;;;;;;5069622;28;20710;-78
2022/08/26 06:20:56;;;;;;;12.85;8.15;;;;;;;;;;5056920;28;20780;-79
2022/08/26 06:26:12;;;;;;;13.55;8.00;;;;;;;;;;5065521;28;20291;-76
2022/08/26 06:28:39;;;;;;;11.48;8.07;;;;;;;;;;5067656;28;20232;-79
2022/08/26 06:31:11;;;;;;;13.95;8.63;;;;;;;;;;5065663;28;20201;-79
2022/08/26 06:33:38;;;;;;;10.43;8.25;;;;;;;;;;5041371;28;20307;-77
2022/08/26 06:36:06;;;;;;;10.70;8.00;;;;;;;;;;5067532;28;20244;-78
2022/08/26 06:38:33;;;;;;;10.20;7.90;;;;;;;;;;5067275;28;20259;-79
2022/08/26 06:41:02;;;;;;;14.10;8.60;;;;;;;;;;5070045;28;20251;-79
2022/08/26 06:43:29;;;;;;;13.27;8.02;;;;;;;;;;5064279;28;20316;-80
2022/08/26 06:46:00;;;;;;;16.52;8.82;;;;;;;;;;5062968;28;20255;-78
2022/08/26 06:48:30;;;;;;;11.93;8.85;;;;;;;;;;5069727;28;20193;-79
2022/08/26 06:51:04;;;;;;;18.33;9.65;;;;;;;;;;5066238;28;20285;-79
2022/08/26 06:53:31;;;;;;;17.23;9.90;;;;;;;;;;5066407;28;20324;-79
2022/08/26 06:55:58;;;;;;;12.35;9.68;;;;;;;;;;5047886;28;20329;-80
2022/08/26 06:58:25;;;;;;;13.10;9.27;;;;;;;;;;5063885;28;20305;-76
2022/08/26 07:00:52;;;;;;;14.20;9.15;;;;;;;;;;5062358;28;20229;-77
2022/08/26 07:03:20;;;;;;;12.70;9.45;;;;;;;;;;5056201;28;23390;-77
2022/08/26 07:05:48;;;;;;;15.93;9.65;;;;;;;;;;5058958;28;20264;-80
2022/08/26 07:08:21;;;;;;;18.63;9.45;;;;;;;;;;5056354;28;20614;-77
2022/08/26 07:10:49;;;;;;;15.57;9.63;;;;;;;;;;5054765;28;20882;-77
2022/08/26 07:13:22;;;;;;;15.70;9.75;;;;;;;;;;5040595;28;20704;-78
2022/08/26 07:15:56;;;;;;;13.88;10.23;;;;;;;;;;5050082;28;20212;-77
2022/08/26 07:18:24;;;;;;;15.70;10.10;;;;;;;;;;5056518;28;20209;-79
2022/08/26 07:20:51;;;;;;;14.25;9.35;;;;;;;;;;5053609;28;20206;-78
2022/08/26 07:23:19;;;;;;;17.70;9.85;;;;;;;;;;5057534;28;20223;-77
2022/08/26 07:25:48;;;;;;;12.98;9.55;;;;;;;;;;5058708;28;21303;-77
2022/08/26 07:28:15;;;;;;;14.15;8.98;;;;;;;;;;5060907;28;20300;-79
2022/08/26 07:30:43;;;;;;;16.10;9.20;;;;;;;;;;5060673;28;20606;-80
2022/08/26 07:33:10;;;;;;;16.77;9.40;;;;;;;;;;5060779;28;20360;-77
2022/08/26 07:35:38;;;;;;;15.77;9.48;;;;;;;;;;5063074;28;20289;-79
2022/08/26 07:38:06;;;;;;;16.60;9.10;;;;;;;;;;5064037;28;20193;-78
2022/08/26 07:40:33;;;;;;;16.00;9.45;;;;;;;;;;5060761;28;20371;-77
2022/08/26 07:43:01;;;;;;;13.20;8.25;;;;;;;;;;5062096;28;20197;-75
2022/08/26 07:45:29;;;;;;;15.05;7.47;;;;;;;;;;5060878;28;20669;-78
2022/08/26 07:47:57;;;;;;;12.27;6.90;;;;;;;;;;5063917;28;20225;-77
2022/08/26 07:50:24;;;;;;;10.38;5.90;;;;;;;;;;5066016;28;20327;-77
2022/08/26 07:53:12;;;;;;;10.43;6.10;;;;;;;;;;5057885;28;20235;-78
2022/08/26 07:55:40;;;;;;;8.95;6.00;;;;;;;;;;5063406;28;20201;-79
2022/08/26 07:58:07;;;;;;;7.25;5.70;;;;;;;;;;5062345;28;20285;-75
2022/08/26 08:00:35;;;;;;;7.97;5.50;;;;;;;;;;5059358;28;20213;-77
2022/08/26 08:03:04;;;;;;;9.30;5.32;;;;;;;;;;5059332;28;20296;-78
2022/08/26 08:05:33;;;;;;;8.57;5.13;;;;;;;;;;5055943;28;20380;-78
2022/08/26 08:08:01;;;;;;;8.13;5.03;;;;;;;;;;5041271;28;20202;-77
2022/08/26 08:10:49;;;;;;;5.40;4.90;;;;;;;;;;5063339;28;20202;-80
2022/08/26 08:13:16;;;;;;;8.65;4.80;;;;;;;;;;5060638;28;20776;-78
2022/08/26 08:15:44;;;;;;;6.68;4.95;;;;;;;;;;5062757;28;20214;-79
2022/08/26 08:18:12;;;;;;;6.13;4.32;;;;;;;;;;5068373;28;20237;-77
2022/08/26 08:20:42;;;;;;;8.63;5.53;;;;;;;;;;5071339;28;20292;-78
2022/08/26 08:23:20;;;;;;;7.10;5.28;;;;;;;;;;5062069;28;20450;-77
2022/08/26 08:25:50;;;;;;;6.45;4.00;;;;;;;;;;5061613;28;20322;-77
2022/08/26 08:28:17;;;;;;;4.80;4.10;;;;;;;;;;5055388;28;20205;-77
2022/08/26 08:30:44;;;;;;;6.13;4.55;;;;;;;;;;5046214;28;21897;-78
2022/08/26 08:33:11;;;;;;;5.82;4.25;;;;;;;;;;5064833;28;20228;-77
2022/08/26 08:35:41;;;;;;;10.30;5.00;;;;;;;;;;5059035;28;20389;-75
2022/08/26 08:38:09;;;;;;;5.20;4.70;;;;;;;;;;5054628;28;20237;-72
2022/08/26 08:40:38;;;;;;;4.53;4.05;;;;;;;;;;5061652;28;20925;-79
2022/08/26 08:43:08;;;;;;;4.05;3.67;;;;;;;;;;5064452;28;20225;-78
2022/08/26 08:45:51;;;;;;;3.83;3.33;;;;;;;;;;5060206;28;20275;-78
2022/08/26 08:48:19;;;;;;;3.38;3.08;;;;;;;;;;5056927;28;20201;-78
2022/08/26 08:50:55;;;;;;;4.57;4.15;;;;;;;;;;5061770;28;20284;-79
2022/08/26 08:53:36;;;;;;;4.65;3.65;;;;;;;;;;5065720;28;21754;-77
2022/08/26 08:56:25;;;;;;;4.90;3.30;;;;;;;;;;5062388;28;20653;-77
2022/08/26 08:58:52;;;;;;;3.85;3.55;;;;;;;;;;5064386;28;20297;-76
2022/08/26 09:01:46;;;;;;;4.35;3.60;;;;;;;;;;5066222;28;20202;-78
2022/08/26 09:04:24;;;;;;;4.15;3.75;;;;;;;;;;5019658;28;20302;-76
2022/08/26 09:06:53;;;;;;;4.43;3.97;;;;;;;;;;5068927;28;20194;-79
2022/08/26 09:09:23;;;;;;;4.22;3.85;;;;;;;;;;5069949;28;20225;-77
2022/08/26 09:11:51;;;;;;;4.53;3.95;;;;;;;;;;5066224;28;20661;-77
2022/08/26 09:14:18;;;;;;;4.30;4.00;;;;;;;;;;5067245;28;20272;-79
2022/08/26 09:16:45;;;;;;;4.32;3.92;;;;;;;;;;5063483;28;20225;-77
2022/08/26 09:19:31;;;;;;;3.80;3.50;;;;;;;;;;5064149;28;20282;-79
2022/08/26 09:21:59;;;;;;;4.00;3.60;;;;;;;;;;5064352;28;20259;-77
2022/08/26 09:24:37;;;;;;;5.82;4.15;;;;;;;;;;5041589;28;20221;-78
2022/08/26 09:27:08;;;;;;;5.10;3.50;;;;;;;;;;5059935;28;20224;-78
2022/08/26 09:29:41;;;;;;;9.20;4.47;;;;;;;;;;5061610;28;20228;-78
2022/08/26 09:32:22;;;;;;;4.00;3.67;;;;;;;;;;5054113;28;20297;-77
2022/08/26 09:34:53;;;;;;;4.35;3.33;;;;;;;;;;5057852;28;20266;-78
2022/08/26 09:37:48;;;;;;;4.20;3.58;;;;;;;;;;5056732;28;20215;-78
2022/08/26 09:40:31;;;;;;;3.78;3.47;;;;;;;;;;5043356;28;20206;-76
2022/08/26 09:43:20;;;;;;;4.07;3.47;;;;;;;;;;5061759;28;20197;-79
2022/08/26 09:45:55;;;;;;;3.70;3.40;;;;;;;;;;5061601;28;20221;-79
2022/08/26 09:48:28;;;;;;;3.67;3.38;;;;;;;;;;5059484;28;20205;-78
2022/08/26 09:50:57;;;;;;;3.42;3.05;;;;;;;;;;5043355;28;20205;-78
2022/08/26 09:53:27;;;;;;;3.67;3.40;;;;;;;;;;5060391;28;20225;-76
2022/08/26 09:56:15;;;;;;;4.00;3.70;;;;;;;;;;5059104;28;20236;-77
2022/08/26 09:58:44;;;;;;;5.38;3.67;;;;;;;;;;5055012;28;20201;-80
2022/08/26 10:01:34;;;;;;;4.57;3.70;;;;;;;;;;5060690;28;20240;-79
2022/08/26 10:04:11;;;;;;;3.88;3.53;;;;;;;;;;5051367;28;20702;-77
2022/08/26 10:06:40;;;;;;;5.90;3.65;;;;;;;;;;5056063;28;20225;-78
2022/08/26 10:09:10;;;;;;;3.72;3.42;;;;;;;;;;5061503;28;20288;-79
2022/08/26 10:11:41;;;;;;;3.50;3.30;;;;;;;;;;5058406;28;20733;-77
2022/08/26 10:14:23;;;;;;;4.35;3.88;;;;;;;;;;5061924;28;20361;-75
2022/08/26 10:16:55;;;;;;;4.10;3.80;;;;;;;;;;5040433;28;20201;-80
2022/08/26 10:19:25;;;;;;;4.20;3.15;;;;;;;;;;5057099;28;20202;-77
2022/08/26 10:22:15;;;;;;;3.50;3.20;;;;;;;;;;5054799;28;20197;-79
2022/08/26 10:24:48;;;;;;;4.65;2.80;;;;;;;;;;5064123;28;20298;-77
2022/08/26 10:27:20;;;;;;;5.65;5.25;;;;;;;;;;5060994;28;20205;-78
2022/08/26 10:29:49;;;;;;;4.32;3.92;;;;;;;;;;5061993;28;20693;-79
2022/08/26 10:32:30;;;;;;;5.82;3.50;;;;;;;;;;5051795;28;20206;-77
2022/08/26 10:34:59;;;;;;;3.58;3.10;;;;;;;;;;5055343;28;20225;-78
2022/08/26 10:37:34;;;;;;;3.25;2.92;;;;;;;;;;5054656;28;20206;-78
2022/08/26 10:40:07;;;;;;;3.92;3.13;;;;;;;;;;5061184;28;20205;-77
2022/08/26 10:42:49;;;;;;;4.22;3.13;;;;;;;;;;5039926;28;20213;-76
2022/08/26 10:45:18;;;;;;;3.17;2.97;;;;;;;;;;5062215;28;20765;-77
2022/08/26 10:47:49;;;;;;;3.05;2.67;;;;;;;;;;5063299;28;20672;-78
2022/08/26 10:50:18;;;;;;;3.65;2.70;;;;;;;;;;5067934;28;20223;-75
2022/08/26 10:52:54;;;;;;;3.28;2.97;;;;;;;;;;5060261;28;20694;-76
2022/08/26 10:55:32;;;;;;;4.40;2.85;;;;;;;;;;5061906;28;20283;-76
2022/08/26 10:58:19;;;;;;;3.05;2.75;;;;;;;;;;5062335;28;20732;-78
2022/08/26 11:03:51;;;;;;;2.97;2.78;;;;;;;;;;5055319;28;20312;-77
2022/08/26 11:06:23;;;;;;;3.45;3.13;;;;;;;;;;5058058;28;21427;-77
2022/08/26 11:08:51;;;;;;;3.10;2.80;;;;;;;;;;5058641;28;20321;-78
2022/08/26 11:11:37;;;;;;;3.70;3.40;;;;;;;;;;5058092;28;20653;-75
2022/08/26 11:14:20;;;;;;;5.55;3.13;;;;;;;;;;5058074;28;20275;-76
2022/08/26 11:16:57;;;;;;;5.30;3.20;;;;;;;;;;5064125;28;20621;-78
2022/08/26 11:19:38;;;;;;;4.63;3.05;;;;;;;;;;5055874;28;20781;-77
2022/08/26 11:22:27;;;;;;;5.53;3.30;;;;;;;;;;5062632;28;20208;-77
2022/08/26 11:24:55;;;;;;;3.67;3.30;;;;;;;;;;5049025;28;20320;-77
2022/08/26 11:27:25;;;;;;;5.75;3.72;;;;;;;;;;5057285;28;20631;-78
2022/08/26 11:29:55;;;;;;;7.90;3.60;;;;;;;;;;5056650;28;20209;-77
2022/08/26 11:32:42;;;;;;;4.60;3.30;;;;;;;;;;5058800;28;20238;-77
2022/08/26 11:35:12;;;;;;;7.53;3.53;;;;;;;;;;5061376;28;20621;-77
2022/08/26 11:37:39;;;;;;;4.43;3.53;;;;;;;;;;5061626;28;20788;-77
2022/08/26 11:40:11;;;;;;;5.28;3.60;;;;;;;;;;5060945;28;20215;-79
2022/08/26 11:42:39;;;;;;;4.43;3.65;;;;;;;;;;5055072;28;20625;-79
2022/08/26 11:45:30;;;;;;;5.25;3.38;;;;;;;;;;5060019;28;20341;-77
2022/08/26 11:47:57;;;;;;;3.63;3.33;;;;;;;;;;5058293;28;20197;-77
2022/08/26 11:50:26;;;;;;;5.57;3.55;;;;;;;;;;5064021;28;20723;-79
2022/08/26 11:52:55;;;;;;;4.63;3.15;;;;;;;;;;5062191;28;20190;-80
2022/08/26 11:55:23;;;;;;;3.63;3.20;;;;;;;;;;5066787;28;20217;-79
2022/08/26 11:57:52;;;;;;;5.30;3.40;;;;;;;;;;5064934;28;20241;-76
2022/08/26 12:00:21;;;;;;;5.05;3.42;;;;;;;;;;5064850;28;20268;-78
2022/08/26 12:02:50;;;;;;;3.65;3.35;;;;;;;;;;5066848;28;20292;-78
2022/08/26 12:05:30;;;;;;;4.72;3.20;;;;;;;;;;5064735;28;20214;-79
2022/08/26 12:08:01;;;;;;;3.70;3.20;;;;;;;;;;5062863;28;20233;-77
2022/08/26 12:10:32;;;;;;;4.55;3.63;;;;;;;;;;5069811;28;20103;-78
2022/08/26 12:13:00;;;;;;;3.20;2.95;;;;;;;;;;5045021;28;20194;-77
2022/08/26 12:15:29;;;;;;;2.85;2.58;;;;;;;;;;5071336;28;20285;-78
2022/08/26 12:17:59;;;;;;;3.00;2.80;;;;;;;;;;5067132;28;20209;-79
2022/08/26 12:20:46;;;;;;;3.00;2.80;;;;;;;;;;5068310;28;20515;-79
2022/08/26 12:23:21;;;;;;;4.68;2.80;;;;;;;;;;5065154;28;20233;-79
2022/08/26 12:25:51;;;;;;;3.45;2.85;;;;;;;;;;5067669;28;20225;-80
2022/08/26 12:28:20;;;;;;;4.38;2.80;;;;;;;;;;5067020;28;20301;-79
2022/08/26 12:31:02;;;;;;;3.00;2.70;;;;;;;;;;5049309;28;20259;-80
2022/08/26 12:33:31;;;;;;;3.00;2.80;;;;;;;;;;5068346;28;20243;-78
2022/08/26 12:36:00;;;;;;;3.42;2.75;;;;;;;;;;5071012;28;20231;-78
2022/08/26 12:38:32;;;;;;;2.80;2.60;;;;;;;;;;5068634;28;20293;-79
2022/08/26 12:41:00;;;;;;;6.97;2.80;;;;;;;;;;5054702;28;20273;-78
2022/08/26 12:43:38;;;;;;;3.22;2.80;;;;;;;;;;5069091;28;21610;-76
2022/08/26 12:46:06;;;;;;;5.25;2.78;;;;;;;;;;5053350;28;20255;-76
2022/08/26 12:48:37;;;;;;;3.42;2.70;;;;;;;;;;5067496;28;20200;-79
2022/08/26 12:51:13;;;;;;;4.00;2.80;;;;;;;;;;5071261;28;20583;-78
2022/08/26 12:53:42;;;;;;;4.53;2.90;;;;;;;;;;5072789;28;20316;-77
2022/08/26 12:56:20;;;;;;;4.30;2.83;;;;;;;;;;5068132;28;20248;-78
2022/08/26 12:59:00;;;;;;;5.15;2.53;;;;;;;;;;5069276;28;20245;-76
2022/08/26 13:01:27;;;;;;;8.15;3.13;;;;;;;;;;5067663;28;20625;-75
2022/08/26 13:03:55;;;;;;;4.95;2.90;;;;;;;;;;5065425;28;20281;-76
2022/08/26 13:06:25;;;;;;;3.25;2.95;;;;;;;;;;5068206;28;20260;-76
2022/08/26 13:08:52;;;;;;;3.97;3.35;;;;;;;;;;5070012;28;20193;-79
2022/08/26 13:11:19;;;;;;;7.10;3.30;;;;;;;;;;5070816;28;20316;-76
2022/08/26 13:13:50;;;;;;;3.53;3.22;;;;;;;;;;5068052;28;20253;-79
2022/08/26 13:16:18;;;;;;;4.35;3.33;;;;;;;;;;5070965;28;20231;-77
2022/08/26 13:18:50;;;;;;;5.95;3.20;;;;;;;;;;5049095;28;20437;-77
2022/08/26 13:21:18;;;;;;;3.92;3.08;;;;;;;;;;5067018;28;20217;-78
2022/08/26 13:23:47;;;;;;;3.72;3.05;;;;;;;;;;5066408;28;20070;-79
2022/08/26 13:26:14;;;;;;;3.53;3.03;;;;;;;;;;5070856;28;20271;-78
2022/08/26 13:28:41;;;;;;;4.55;3.15;;;;;;;;;;5072238;28;20274;-78
2022/08/26 13:31:12;;;;;;;3.40;3.10;;;;;;;;;;5063461;28;20216;-78
2022/08/26 13:33:40;;;;;;;3.80;3.50;;;;;;;;;;5070204;28;20217;-76
2022/08/26 13:36:07;;;;;;;4.97;3.38;;;;;;;;;;5067803;28;20297;-78
2022/08/26 13:38:35;;;;;;;3.33;3.10;;;;;;;;;;5072514;28;20228;-77
2022/08/26 13:41:03;;;;;;;3.65;3.35;;;;;;;;;;5069739;28;20297;-78
2022/08/26 13:43:31;;;;;;;3.40;3.10;;;;;;;;;;5071060;28;20253;-78
2022/08/26 13:46:00;;;;;;;3.20;3.00;;;;;;;;;;5066930;28;20732;-77
2022/08/26 13:48:27;;;;;;;3.28;2.97;;;;;;;;;;5068709;28;20201;-79
2022/08/26 13:50:55;;;;;;;3.80;3.42;;;;;;;;;;5048952;28;20277;-79
2022/08/26 13:53:22;;;;;;;3.00;2.80;;;;;;;;;;5070678;28;20260;-77
2022/08/26 13:55:50;;;;;;;3.60;2.97;;;;;;;;;;5070400;28;20248;-77
2022/08/26 13:58:17;;;;;;;6.97;5.97;;;;;;;;;;5069283;28;20259;-78
2022/08/26 14:00:45;;;;;;;3.70;3.40;;;;;;;;;;5062089;28;20298;-77
2022/08/26 14:03:13;;;;;;;5.20;3.22;;;;;;;;;;5071509;28;20225;-79
2022/08/26 14:05:40;;;;;;;5.18;3.42;;;;;;;;;;5039745;28;20221;-77
2022/08/26 14:08:08;;;;;;;3.85;3.42;;;;;;;;;;5072468;28;20205;-76
2022/08/26 14:10:35;;;;;;;3.17;2.88;;;;;;;;;;5068042;28;20198;-77
2022/08/26 14:13:03;;;;;;;2.90;2.70;;;;;;;;;;5077019;28;20292;-78
2022/08/26 14:15:34;;;;;;;3.05;2.75;;;;;;;;;;5064505;28;20253;-76
2022/08/26 14:18:03;;;;;;;4.80;2.88;;;;;;;;;;5043487;28;20268;-79
2022/08/26 14:20:33;;;;;;;4.80;3.47;;;;;;;;;;5068868;28;20217;-78
2022/08/26 14:23:02;;;;;;;3.67;3.33;;;;;;;;;;5067623;28;20240;-76
2022/08/26 14:25:40;;;;;;;5.00;2.80;;;;;;;;;;5065087;28;20213;-79
2022/08/26 14:28:07;;;;;;;3.20;3.00;;;;;;;;;;5070371;28;20660;-78
2022/08/26 14:30:36;;;;;;;8.15;4.10;;;;;;;;;;5060498;28;20229;-77
2022/08/26 14:33:03;;;;;;;13.60;6.03;;;;;;;;;;5056757;28;20202;-78
2022/08/26 14:35:30;;;;;;;17.35;8.20;;;;;;;;;;5060479;28;20252;-77
2022/08/26 14:37:58;;;;;;;9.88;5.60;;;;;;;;;;5044099;28;20300;-75
2022/08/26 14:40:28;;;;;;;11.00;6.50;;;;;;;;;;5041731;28;21439;-76
2022/08/26 14:42:56;;;;;;;12.05;5.93;;;;;;;;;;5046875;28;20209;-75
2022/08/26 14:45:29;;;;;;;6.20;4.65;;;;;;;;;;5016622;28;20230;-76
2022/08/26 14:47:57;;;;;;;5.03;4.50;;;;;;;;;;5034340;28;20205;-76
2022/08/26 14:50:26;;;;;;;4.88;4.28;;;;;;;;;;5051667;28;20642;-75
2022/08/26 14:55:40;;;;;;;10.00;5.22;;;;;;;;;;5055162;28;20288;-78
2022/08/26 14:58:11;;;;;;;5.22;4.72;;;;;;;;;;5056676;28;20245;-75
2022/08/26 15:00:38;;;;;;;6.75;4.50;;;;;;;;;;5053670;28;20312;-77
2022/08/26 15:03:05;;;;;;;6.80;4.80;;;;;;;;;;5055420;28;20321;-76
2022/08/26 15:05:33;;;;;;;6.70;5.70;;;;;;;;;;5057314;28;20316;-76
2022/08/26 15:08:03;;;;;;;7.10;6.20;;;;;;;;;;5062543;28;20205;-78
2022/08/26 15:10:30;;;;;;;7.32;6.68;;;;;;;;;;5044673;28;20750;-77
2022/08/26 15:12:58;;;;;;;6.80;5.45;;;;;;;;;;5063133;28;20626;-77